createdAt,value
2023-03-06T00:02:37.468Z,-1.00
2023-03-06T00:05:40.798Z,-1.00
2023-03-06T00:13:10.015Z,-1.06
2023-03-06T00:16:36.526Z,-1.00
2023-03-06T00:20:30.712Z,-1.00
2023-03-06T00:24:50.888Z,-1.10
2023-03-06T00:33:37.552Z,-1.00
2023-03-06T00:38:11.866Z,-1.00
2023-03-06T00:42:45.651Z,-1.00
2023-03-06T00:47:25.871Z,-1.00
2023-03-06T00:51:04.193Z,-1.00
2023-03-06T00:54:20.824Z,-0.94
2023-03-06T00:58:40.964Z,-0.90
2023-03-06T01:02:57.700Z,-0.94
2023-03-06T01:07:33.261Z,-0.90
2023-03-06T01:11:52.002Z,-0.90
2023-03-06T01:16:24.966Z,-0.80
2023-03-06T01:20:37.034Z,-0.80
2023-03-06T01:24:31.020Z,-0.70
2023-03-06T01:27:33.606Z,-0.60
2023-03-06T01:31:54.118Z,-0.50
2023-03-06T01:35:35.495Z,-0.50
2023-03-06T01:39:55.196Z,-0.40
2023-03-06T01:44:32.660Z,-0.40
2023-03-06T01:49:05.076Z,-0.32
2023-03-06T01:53:36.107Z,-0.28
2023-03-06T01:58:11.425Z,-0.20
2023-03-06T02:02:37.604Z,-0.20
2023-03-06T02:06:11.309Z,-0.20
2023-03-06T02:10:33.291Z,-0.12
2023-03-06T02:15:09.538Z,-0.20
2023-03-06T02:19:46.877Z,-0.20
2023-03-06T02:24:29.731Z,-0.20
2023-03-06T02:29:00.842Z,-0.20
2023-03-06T02:33:13.905Z,-0.20
2023-03-06T02:37:45.721Z,-0.20
2023-03-06T02:40:58.372Z,-0.20
2023-03-06T02:53:53.871Z,-0.20
2023-03-06T02:58:26.427Z,-0.14
2023-03-06T03:02:59.353Z,-0.14
2023-03-06T03:07:34.613Z,-0.10
2023-03-06T03:12:14.982Z,0.00
2023-03-06T03:15:09.376Z,0.00
2023-03-06T03:17:41.707Z,0.00
2023-03-06T03:23:44.062Z,0.02
2023-03-06T03:28:25.334Z,0.04
2023-03-06T03:32:47.400Z,0.02
2023-03-06T03:37:12.566Z,0.10
2023-03-06T03:49:40.177Z,0.10
2023-03-06T03:52:12.050Z,0.10
2023-03-06T04:04:44.266Z,0.10
2023-03-06T06:02:17.339Z,1.20
2023-03-06T06:04:45.893Z,1.20
2023-03-06T06:07:16.368Z,1.20
2023-03-06T06:09:58.500Z,1.30
2023-03-06T06:12:40.661Z,1.30
2023-03-06T06:15:22.928Z,1.40
2023-03-06T06:18:05.081Z,1.40
2023-03-06T06:20:33.562Z,1.50
2023-03-06T06:23:02.262Z,1.50
2023-03-06T06:28:29.781Z,1.60
2023-03-06T06:30:58.194Z,1.70
2023-03-06T06:33:41.899Z,1.70
2023-03-06T06:36:21.659Z,1.70
2023-03-06T06:38:50.062Z,1.78
2023-03-06T06:41:51.133Z,1.80
2023-03-06T06:44:22.025Z,1.86
2023-03-06T06:47:23.976Z,1.90
2023-03-06T06:50:13.169Z,1.94
2023-03-06T06:55:51.843Z,2.00
2023-03-06T06:58:33.964Z,2.00
2023-03-06T07:01:08.458Z,2.00
2023-03-06T07:03:50.676Z,2.08
2023-03-06T07:06:32.861Z,2.10
2023-03-06T07:09:15.054Z,2.18
2023-03-06T07:11:58.266Z,2.20
2023-03-06T07:14:41.710Z,2.30
2023-03-06T07:17:23.858Z,2.30
2023-03-06T07:19:52.777Z,2.36
2023-03-06T07:22:50.009Z,2.40
2023-03-06T07:28:28.758Z,2.44
2023-03-06T07:33:55.418Z,2.50
2023-03-06T07:36:24.367Z,2.50
2023-03-06T07:38:52.519Z,2.58
2023-03-06T07:41:34.680Z,2.60
2023-03-06T07:44:16.740Z,2.62
2023-03-06T07:46:45.108Z,2.70
2023-03-06T07:49:13.677Z,2.80
2023-03-06T07:51:55.656Z,2.90
2023-03-06T07:54:37.725Z,3.00
2023-03-06T07:57:19.904Z,3.06
2023-03-06T08:00:02.392Z,3.12
2023-03-06T08:02:30.790Z,3.20
2023-03-06T08:04:59.370Z,3.30
2023-03-06T08:07:30.264Z,3.40
2023-03-06T08:09:58.890Z,3.48
2023-03-06T08:12:28.360Z,3.50
2023-03-06T08:14:56.965Z,3.60
2023-03-06T08:17:25.461Z,3.70
2023-03-06T08:19:53.961Z,3.70
2023-03-06T08:22:22.359Z,3.66
2023-03-06T08:24:56.849Z,3.62
2023-03-06T08:27:39.417Z,3.70
2023-03-06T08:30:09.557Z,3.70
2023-03-06T08:32:38.436Z,3.70
2023-03-06T08:35:08.031Z,3.70
2023-03-06T08:37:36.682Z,3.80
2023-03-06T08:40:05.896Z,3.90
2023-03-06T08:42:34.447Z,4.00
2023-03-06T08:45:02.955Z,4.10
2023-03-06T08:47:31.421Z,4.16
2023-03-06T08:50:00.896Z,4.10
2023-03-06T08:52:29.655Z,4.10
2023-03-06T08:55:01.278Z,4.20
2023-03-06T08:57:43.436Z,4.30
2023-03-06T09:00:14.118Z,4.36
2023-03-06T09:02:56.555Z,4.42
2023-03-06T09:05:25.415Z,4.48
2023-03-06T09:07:54.295Z,4.52
2023-03-06T09:10:26.276Z,4.60
2023-03-06T09:12:55.498Z,4.60
2023-03-06T09:15:25.195Z,4.70
2023-03-06T09:17:54.735Z,4.80
2023-03-06T09:20:23.509Z,4.90
2023-03-06T09:22:52.040Z,4.90
2023-03-06T09:25:22.620Z,4.98
2023-03-06T09:28:11.460Z,5.00
2023-03-06T09:30:54.428Z,5.00
2023-03-06T09:33:23.441Z,5.14
2023-03-06T09:36:02.280Z,5.20
2023-03-06T09:38:30.785Z,5.24
2023-03-06T09:41:00.359Z,5.28
2023-03-06T09:43:42.860Z,5.30
2023-03-06T09:46:43.965Z,5.40
2023-03-06T09:50:10.063Z,5.50
2023-03-06T09:52:54.551Z,5.60
2023-03-06T09:55:27.496Z,5.62
2023-03-06T09:58:29.040Z,5.70
2023-03-06T10:01:04.538Z,5.72
2023-03-06T10:03:59.957Z,5.80
2023-03-06T10:06:47.636Z,5.80
2023-03-06T10:09:30.921Z,5.80
2023-03-06T10:12:26.755Z,5.80
2023-03-06T10:15:05.136Z,5.80
2023-03-06T10:17:43.153Z,5.80
2023-03-06T10:20:37.500Z,5.90
2023-03-06T10:23:50.186Z,6.00
2023-03-06T10:26:32.887Z,6.00
2023-03-06T10:30:00.122Z,6.10
2023-03-06T10:32:55.575Z,6.10
2023-03-06T10:35:45.769Z,6.10
2023-03-06T10:38:25.029Z,6.10
2023-03-06T10:41:13.190Z,6.18
2023-03-06T10:44:05.485Z,6.10
2023-03-06T10:46:36.887Z,6.00
2023-03-06T10:49:23.045Z,6.00
2023-03-06T10:52:14.061Z,6.00
2023-03-06T10:57:40.964Z,6.00
2023-03-06T11:00:38.784Z,6.00
2023-03-06T11:06:41.519Z,6.10
2023-03-06T11:09:26.212Z,6.28
2023-03-06T11:21:40.090Z,6.60
2023-03-06T11:34:04.536Z,6.50
2023-03-06T11:36:49.696Z,6.50
2023-03-06T11:39:44.920Z,6.42
2023-03-06T11:42:33.918Z,6.30
2023-03-06T11:45:43.836Z,6.20
2023-03-06T11:48:38.074Z,6.10
2023-03-06T11:51:26.075Z,6.10
2023-03-06T11:53:55.421Z,6.00
2023-03-06T12:04:13.995Z,5.90
2023-03-06T12:07:11.032Z,5.90
2023-03-06T12:10:35.356Z,6.00
2023-03-06T12:13:38.871Z,6.00
2023-03-06T12:16:47.338Z,5.90
2023-03-06T12:19:55.194Z,5.70
2023-03-06T12:22:57.964Z,5.50
2023-03-06T12:25:55.315Z,5.22
2023-03-06T12:32:40.688Z,4.80
2023-03-06T12:35:54.174Z,4.80
2023-03-06T12:41:59.439Z,4.70
2023-03-06T12:45:11.608Z,4.60
2023-03-06T12:47:57.517Z,4.50
2023-03-06T12:50:44.525Z,4.48
2023-03-06T12:53:32.872Z,4.30
2023-03-06T12:56:18.369Z,4.20
2023-03-06T12:59:03.774Z,4.00
2023-03-06T13:02:04.480Z,3.90
2023-03-06T13:05:14.306Z,3.82
2023-03-06T13:08:35.173Z,3.60
2023-03-06T13:11:44.955Z,3.48
2023-03-06T13:14:48.720Z,3.30
2023-03-06T13:17:37.968Z,3.20
2023-03-06T13:20:44.636Z,3.10
2023-03-06T13:23:35.794Z,3.00
2023-03-06T13:26:26.349Z,2.90
2023-03-06T13:28:58.081Z,2.80
2023-03-06T13:31:40.225Z,2.70
2023-03-06T13:34:46.939Z,2.60
2023-03-06T13:37:29.059Z,2.54
2023-03-06T13:40:15.187Z,2.50
2023-03-06T13:42:43.287Z,2.40
2023-03-06T13:48:46.085Z,2.20
2023-03-06T13:51:35.093Z,2.20
2023-03-06T13:58:18.025Z,2.46
2023-03-06T14:01:22.478Z,2.60
2023-03-06T14:07:24.514Z,2.90
2023-03-06T14:10:24.903Z,3.06
2023-03-06T14:13:45.277Z,3.20
2023-03-06T14:16:49.477Z,3.40
2023-03-06T14:19:38.864Z,3.60
2023-03-06T14:22:22.122Z,3.76
2023-03-06T14:25:33.579Z,3.98
2023-03-06T14:28:13.662Z,4.04
2023-03-06T14:30:59.597Z,4.10
2023-03-06T14:33:50.725Z,4.20
2023-03-06T14:39:42.067Z,4.30
2023-03-06T14:42:21.196Z,4.40
2023-03-06T14:45:21.383Z,4.50
2023-03-06T14:47:53.086Z,4.50
2023-03-06T14:50:36.136Z,4.50
2023-03-06T14:53:19.129Z,4.50
2023-03-06T14:56:00.238Z,4.60
2023-03-06T14:58:40.511Z,4.60
2023-03-06T15:01:13.812Z,4.60
2023-03-06T15:04:00.639Z,4.60
2023-03-06T15:06:45.388Z,4.60
2023-03-06T15:09:27.120Z,4.60
2023-03-06T15:12:20.408Z,4.60
2023-03-06T15:15:08.702Z,4.60
2023-03-06T15:17:42.658Z,4.52
2023-03-06T15:21:36.504Z,4.50
2023-03-06T15:24:37.452Z,4.48
2023-03-06T15:30:36.318Z,4.34
2023-03-06T15:33:26.636Z,4.30
2023-03-06T15:36:04.803Z,4.30
2023-03-06T15:41:35.804Z,4.20
2023-03-06T15:47:08.740Z,4.10
2023-03-06T15:49:53.383Z,4.10
2023-03-06T15:52:35.386Z,4.10
2023-03-06T15:55:03.855Z,3.90
2023-03-06T15:57:57.720Z,3.70
2023-03-06T16:00:40.254Z,3.50
2023-03-06T16:08:47.043Z,3.00
2023-03-06T16:11:43.367Z,2.80
2023-03-06T16:14:26.265Z,2.70
2023-03-06T16:17:12.159Z,2.60
2023-03-06T16:22:36.288Z,2.50
2023-03-06T16:25:18.512Z,2.48
2023-03-06T16:28:01.213Z,2.40
2023-03-06T16:30:32.854Z,2.38
2023-03-06T16:35:57.212Z,2.30
2023-03-06T16:38:25.718Z,2.20
2023-03-06T16:40:54.273Z,2.10
2023-03-06T16:43:22.918Z,2.10
2023-03-06T16:45:51.698Z,1.90
2023-03-06T16:48:20.930Z,1.80
2023-03-06T16:50:49.770Z,1.80
2023-03-06T16:53:18.647Z,1.90
2023-03-06T16:55:46.982Z,1.90
2023-03-06T16:58:16.370Z,1.90
2023-03-06T17:00:45.400Z,2.04
2023-03-06T17:03:13.919Z,2.18
2023-03-06T17:05:44.077Z,2.26
2023-03-06T17:08:26.285Z,2.30
2023-03-06T17:10:54.741Z,2.30
2023-03-06T17:13:23.193Z,2.30
2023-03-06T17:15:59.604Z,2.30
2023-03-06T17:18:29.796Z,2.24
2023-03-06T17:20:58.707Z,2.20
2023-03-06T17:23:29.858Z,2.20
2023-03-06T17:26:10.336Z,2.10
2023-03-06T17:28:39.776Z,2.10
2023-03-06T17:31:25.079Z,2.00
2023-03-06T17:34:02.136Z,2.00
2023-03-06T17:36:31.961Z,2.00
2023-03-06T17:39:03.108Z,2.00
2023-03-06T17:41:33.093Z,1.90
2023-03-06T17:44:02.126Z,1.90
2023-03-06T17:46:34.816Z,1.86
2023-03-06T17:49:19.546Z,1.80
2023-03-06T17:52:03.181Z,1.78
2023-03-06T17:54:46.377Z,1.70
2023-03-06T17:57:14.818Z,1.68
2023-03-06T17:59:57.115Z,1.60
2023-03-06T18:05:09.008Z,1.50
2023-03-06T18:07:37.784Z,1.40
2023-03-06T18:10:07.034Z,1.40
2023-03-06T18:12:35.294Z,1.40
2023-03-06T18:18:18.331Z,1.60
2023-03-06T18:21:06.604Z,1.62
2023-03-06T18:23:36.305Z,1.70
2023-03-06T18:26:26.246Z,1.80
2023-03-06T18:34:34.881Z,1.90
2023-03-06T18:37:03.540Z,1.98
2023-03-06T18:39:32.183Z,2.00
2023-03-06T18:42:00.453Z,2.00
2023-03-06T18:44:28.861Z,2.00
2023-03-06T18:46:57.340Z,2.00
2023-03-06T18:49:25.916Z,2.00
2023-03-06T18:54:36.319Z,2.10
2023-03-06T18:57:04.984Z,2.10
2023-03-06T18:59:33.594Z,2.08
2023-03-06T19:02:02.238Z,2.08
2023-03-06T19:04:30.841Z,2.06
2023-03-06T19:07:01.109Z,2.00
2023-03-06T19:09:44.679Z,2.00
2023-03-06T19:12:26.750Z,2.00
2023-03-06T19:14:55.306Z,2.00
2023-03-06T19:17:25.004Z,1.96
2023-03-06T19:19:55.208Z,1.94
2023-03-06T19:22:23.732Z,1.90
2023-03-06T19:24:52.311Z,1.90
2023-03-06T19:27:20.919Z,1.90
2023-03-06T19:29:49.370Z,1.82
2023-03-06T19:32:31.512Z,1.80
2023-03-06T19:34:59.911Z,1.80
2023-03-06T19:37:28.569Z,1.70
2023-03-06T19:42:43.731Z,1.70
2023-03-06T19:45:12.931Z,1.60
2023-03-06T19:48:00.674Z,1.58
2023-03-06T19:50:29.962Z,1.50
2023-03-06T19:52:58.771Z,1.42
2023-03-06T19:55:29.272Z,1.40
2023-03-06T19:57:59.516Z,1.40
2023-03-06T20:00:28.837Z,1.40
2023-03-06T20:02:58.020Z,1.40
2023-03-06T20:05:47.949Z,1.50
2023-03-06T20:08:17.018Z,1.50
2023-03-06T20:10:45.258Z,1.50
2023-03-06T20:13:13.712Z,1.40
2023-03-06T20:15:41.842Z,1.40
2023-03-06T20:18:10.346Z,1.40
2023-03-06T20:20:40.225Z,1.32
2023-03-06T20:23:22.254Z,1.20
2023-03-06T20:25:50.661Z,1.10
2023-03-06T20:28:34.013Z,1.00
2023-03-06T20:31:22.713Z,0.90
2023-03-06T20:34:05.564Z,0.90
2023-03-06T20:36:40.621Z,0.84
2023-03-06T20:39:13.638Z,0.80
2023-03-06T20:41:42.760Z,0.80
2023-03-06T20:44:31.135Z,0.80
2023-03-06T20:47:01.184Z,0.80
2023-03-06T20:49:29.805Z,0.80
2023-03-06T20:51:58.162Z,0.74
2023-03-06T20:54:26.684Z,0.70
2023-03-06T20:56:55.095Z,0.70
2023-03-06T20:59:24.544Z,0.70
2023-03-06T21:01:52.897Z,0.78
2023-03-06T21:04:21.366Z,0.80
2023-03-06T21:06:54.029Z,0.80
2023-03-06T21:09:22.505Z,0.80
2023-03-06T21:11:50.992Z,0.90
2023-03-06T21:14:19.344Z,0.90
2023-03-06T21:17:01.484Z,0.90
2023-03-06T21:19:30.006Z,0.90
2023-03-06T21:21:58.593Z,1.00
2023-03-06T21:24:27.167Z,1.00
2023-03-06T21:26:55.669Z,1.00
2023-03-06T21:29:24.248Z,1.10
2023-03-06T21:31:52.812Z,1.10
2023-03-06T21:34:21.307Z,1.10
2023-03-06T21:36:51.221Z,1.10
2023-03-06T21:39:19.471Z,1.10
2023-03-06T21:41:47.974Z,1.10
2023-03-06T21:44:16.706Z,1.16
2023-03-06T21:46:45.271Z,1.20
2023-03-06T21:49:27.550Z,1.26
2023-03-06T21:51:56.010Z,1.30
2023-03-06T21:54:24.448Z,1.38
2023-03-06T21:56:53.557Z,1.48
2023-03-06T21:59:21.809Z,1.50
2023-03-06T22:01:50.328Z,1.50
2023-03-06T22:04:18.601Z,1.40
2023-03-06T22:06:46.817Z,1.40
2023-03-06T22:09:28.941Z,1.40
2023-03-06T22:12:11.057Z,1.40
2023-03-06T22:14:53.153Z,1.40
2023-03-06T22:17:35.473Z,1.40
2023-03-06T22:20:17.637Z,1.40
2023-03-06T22:22:59.645Z,1.40
2023-03-06T22:25:27.746Z,1.30
2023-03-06T22:28:09.845Z,1.30
2023-03-06T22:30:51.846Z,1.30
2023-03-06T22:33:34.067Z,1.30
2023-03-06T22:36:16.486Z,1.30
2023-03-06T22:39:01.696Z,1.28
2023-03-06T22:41:43.630Z,1.30
2023-03-06T22:47:21.411Z,1.20
2023-03-06T22:50:04.905Z,1.20
2023-03-06T22:52:46.871Z,1.20
2023-03-06T22:55:28.842Z,1.20
2023-03-06T22:57:56.955Z,1.18
2023-03-06T23:00:26.769Z,1.18
2023-03-06T23:02:55.569Z,1.14
2023-03-06T23:05:24.779Z,1.10
2023-03-06T23:07:53.381Z,1.14
2023-03-06T23:10:22.330Z,1.12
2023-03-06T23:12:50.841Z,1.14
2023-03-06T23:15:19.327Z,1.20
2023-03-06T23:17:48.078Z,1.14
2023-03-06T23:20:16.486Z,1.10
2023-03-06T23:22:44.838Z,1.16
2023-03-06T23:25:13.310Z,1.20
2023-03-06T23:27:41.799Z,1.22
2023-03-06T23:30:11.374Z,1.30
2023-03-06T23:32:39.623Z,1.30
2023-03-06T23:35:08.612Z,1.30
2023-03-06T23:37:36.944Z,1.30
2023-03-06T23:40:08.086Z,1.30
2023-03-06T23:42:36.788Z,1.30
2023-03-06T23:45:06.183Z,1.30
2023-03-06T23:47:35.121Z,1.38
2023-03-06T23:50:03.786Z,1.32
2023-03-06T23:52:32.203Z,1.36
2023-03-06T23:55:00.494Z,1.32
2023-03-06T23:57:30.772Z,1.34
